Time;durP1;ratioP1;P1;durP2;ratioP2;P2;SDS_P1;SDS_P2;PMS_P1;PMS_P2;Temp;Humidity;BMP_temperature;BMP_pressure;BME280_temperature;BME280_humidity;BME280_pressure;Samples;Min_cycle;Max_cycle;Signal;HPM_P1;HPM_P2
2022/04/10 00:00:46;;;;;;;5.73;4.50;;;2.70;99.90;;;;;;4982099;28;20176;-75
2022/04/10 00:03:12;;;;;;;4.50;3.80;;;2.70;99.90;;;;;;4981953;28;20179;-75
2022/04/10 00:05:37;;;;;;;5.10;3.63;;;2.70;99.90;;;;;;4998006;28;20188;-75
2022/04/10 00:08:04;;;;;;;4.37;3.80;;;2.70;99.90;;;;;;4997867;28;20200;-75
2022/04/10 00:10:29;;;;;;;4.20;3.80;;;2.70;99.90;;;;;;5014422;28;20211;-75
2022/04/10 00:12:55;;;;;;;3.90;3.50;;;2.80;99.90;;;;;;4997527;28;20251;-75
2022/04/10 00:15:21;;;;;;;4.87;3.67;;;2.90;99.90;;;;;;4997966;28;20627;-75
2022/04/10 00:17:46;;;;;;;4.17;3.37;;;2.80;99.90;;;;;;4997846;28;20195;-75
2022/04/10 00:20:13;;;;;;;3.97;3.57;;;2.70;99.90;;;;;;5014274;28;20182;-75
2022/04/10 00:22:47;;;;;;;5.93;3.73;;;2.60;99.90;;;;;;5014031;28;20181;-75
2022/04/10 00:25:15;;;;;;;4.50;3.70;;;2.60;99.90;;;;;;5014100;28;20187;-75
2022/04/10 00:27:41;;;;;;;4.50;3.73;;;2.60;99.90;;;;;;4998516;28;20224;-75
2022/04/10 00:30:12;;;;;;;6.13;3.60;;;2.70;99.90;;;;;;5014081;28;20279;-75
2022/04/10 00:32:38;;;;;;;5.87;3.77;;;2.70;99.90;;;;;;5013931;28;20215;-75
2022/04/10 00:35:05;;;;;;;4.60;3.40;;;2.70;99.90;;;;;;5015091;28;20177;-75
2022/04/10 00:37:35;;;;;;;5.00;3.83;;;2.60;99.90;;;;;;4985431;28;20216;-75
2022/04/10 00:40:01;;;;;;;6.07;4.00;;;2.60;99.90;;;;;;5017704;28;20178;-75
2022/04/10 00:42:34;;;;;;;5.10;3.53;;;2.60;99.90;;;;;;5001259;28;20181;-75
2022/04/10 00:45:00;;;;;;;4.30;3.80;;;2.60;99.90;;;;;;5035405;28;20184;-75
2022/04/10 00:47:26;;;;;;;4.10;3.70;;;2.60;99.90;;;;;;5017424;28;20213;-75
2022/04/10 00:49:52;;;;;;;3.43;3.13;;;2.70;99.90;;;;;;5017740;28;20188;-75
2022/04/10 00:52:21;;;;;;;4.30;3.57;;;2.70;99.90;;;;;;5017102;28;20689;-75
2022/04/10 00:54:47;;;;;;;4.17;3.77;;;2.70;99.90;;;;;;4985118;28;20306;-75
2022/04/10 00:57:14;;;;;;;6.10;4.40;;;2.70;99.90;;;;;;5001178;28;20721;-75
2022/04/10 00:59:40;;;;;;;4.90;4.20;;;2.70;99.90;;;;;;5001072;28;20665;-75
2022/04/10 01:02:06;;;;;;;4.07;3.50;;;2.70;99.90;;;;;;4984758;28;20182;-75
2022/04/10 01:04:32;;;;;;;5.37;3.70;;;2.70;99.90;;;;;;5017472;28;20186;-75
2022/04/10 01:06:59;;;;;;;4.13;3.73;;;2.60;99.90;;;;;;5000971;28;20709;-75
2022/04/10 01:09:26;;;;;;;4.63;3.83;;;2.60;99.90;;;;;;5000937;28;20181;-75
2022/04/10 01:11:55;;;;;;;4.00;3.67;;;2.50;99.90;;;;;;4984481;28;20189;-75
2022/04/10 01:14:21;;;;;;;5.43;4.20;;;2.50;99.90;;;;;;5000910;28;20181;-75
2022/04/10 01:16:47;;;;;;;6.17;4.40;;;2.50;99.90;;;;;;5001015;28;20179;-75
2022/04/10 01:19:13;;;;;;;5.90;4.40;;;2.60;99.90;;;;;;4984654;28;20282;-75
2022/04/10 01:21:44;;;;;;;5.37;4.47;;;2.60;99.90;;;;;;5016810;28;20268;-75
2022/04/10 01:24:11;;;;;;;4.70;3.97;;;2.60;99.90;;;;;;5001044;28;20177;-75
2022/04/10 01:26:37;;;;;;;4.40;4.00;;;2.50;99.90;;;;;;5000847;28;20207;-75
2022/04/10 01:29:08;;;;;;;5.07;4.37;;;2.50;99.90;;;;;;5016923;28;20199;-75
2022/04/10 01:31:39;;;;;;;5.23;4.30;;;2.50;99.90;;;;;;5016724;28;20290;-75
2022/04/10 01:34:07;;;;;;;5.80;4.83;;;2.50;99.90;;;;;;5016448;28;20604;-75
2022/04/10 01:36:34;;;;;;;5.17;4.63;;;2.50;99.90;;;;;;5000540;28;20662;-75
2022/04/10 01:39:02;;;;;;;6.03;4.87;;;2.60;99.90;;;;;;5000418;28;20296;-75
2022/04/10 01:41:28;;;;;;;6.50;4.80;;;2.60;99.90;;;;;;5000394;28;20184;-75
2022/04/10 01:43:56;;;;;;;4.97;4.43;;;2.70;99.90;;;;;;5000176;28;20530;-75
2022/04/10 01:46:23;;;;;;;9.03;4.57;;;2.70;99.90;;;;;;5000276;28;20181;-75
2022/04/10 01:48:49;;;;;;;6.03;4.20;;;2.80;99.90;;;;;;5016596;28;20213;-75
2022/04/10 01:51:15;;;;;;;5.93;4.47;;;2.80;99.90;;;;;;5034190;28;20249;-74
2022/04/10 01:53:41;;;;;;;6.67;4.47;;;2.90;99.90;;;;;;5016121;28;20204;-74
2022/04/10 01:56:08;;;;;;;7.83;5.03;;;3.00;99.90;;;;;;5000134;28;20181;-74
2022/04/10 01:58:38;;;;;;;8.33;4.33;;;2.90;99.90;;;;;;5016280;28;20242;-75
2022/04/10 02:01:10;;;;;;;7.00;4.50;;;3.00;99.90;;;;;;4983943;28;20199;-75
2022/04/10 02:03:37;;;;;;;6.83;4.50;;;2.90;99.90;;;;;;4983869;28;20215;-75
2022/04/10 02:06:04;;;;;;;6.50;5.20;;;3.00;99.90;;;;;;5016302;28;20179;-75
2022/04/10 02:08:31;;;;;;;7.03;4.73;;;3.00;99.90;;;;;;4983791;28;20197;-75
2022/04/10 02:10:57;;;;;;;6.27;4.70;;;2.90;99.90;;;;;;4983687;28;20215;-75
2022/04/10 02:13:24;;;;;;;8.00;5.00;;;2.90;99.90;;;;;;5015768;28;20685;-75
2022/04/10 02:15:50;;;;;;;6.60;4.80;;;2.90;99.90;;;;;;5015971;28;20172;-75
2022/04/10 02:18:16;;;;;;;8.17;4.87;;;2.90;99.90;;;;;;4999766;28;20204;-75
2022/04/10 02:20:42;;;;;;;5.87;4.60;;;2.90;99.90;;;;;;4999759;28;20173;-75
2022/04/10 02:23:08;;;;;;;5.23;4.30;;;2.90;99.90;;;;;;4999532;28;20581;-75
2022/04/10 02:25:34;;;;;;;7.07;4.90;;;2.90;99.90;;;;;;5015975;28;20223;-75
2022/04/10 02:27:59;;;;;;;6.87;4.80;;;2.90;99.90;;;;;;4999481;28;20204;-75
2022/04/10 02:30:25;;;;;;;7.13;4.77;;;2.90;99.90;;;;;;5015959;28;20187;-75
2022/04/10 02:32:51;;;;;;;6.33;5.03;;;2.90;99.90;;;;;;4982942;28;20350;-75
2022/04/10 02:35:16;;;;;;;6.50;4.93;;;2.90;99.90;;;;;;5015862;28;20183;-75
2022/04/10 02:37:45;;;;;;;7.90;4.80;;;2.90;99.90;;;;;;4982961;28;20198;-75
2022/04/10 02:40:14;;;;;;;5.47;4.90;;;2.90;99.90;;;;;;5015546;28;20639;-75
2022/04/10 02:42:41;;;;;;;7.30;5.10;;;2.90;99.90;;;;;;4999282;28;20184;-75
2022/04/10 02:45:07;;;;;;;6.33;5.23;;;2.90;99.90;;;;;;5033054;28;20167;-75
2022/04/10 02:47:33;;;;;;;5.67;5.00;;;2.90;99.90;;;;;;5015191;28;20700;-75
2022/04/10 02:49:59;;;;;;;8.20;5.00;;;2.90;99.90;;;;;;4983085;28;20222;-75
2022/04/10 02:52:25;;;;;;;6.50;5.17;;;3.00;99.90;;;;;;5015029;28;20199;-75
2022/04/10 02:54:52;;;;;;;6.67;4.83;;;3.00;99.90;;;;;;5015373;28;20665;-75
2022/04/10 02:57:17;;;;;;;7.07;5.10;;;3.00;99.90;;;;;;4998440;28;20184;-75
2022/04/10 02:59:43;;;;;;;8.23;5.03;;;2.90;99.90;;;;;;5033008;28;20186;-75
2022/04/10 03:02:08;;;;;;;7.97;5.30;;;2.90;99.90;;;;;;4982522;28;20551;-75
2022/04/10 03:04:34;;;;;;;7.37;4.70;;;2.90;99.90;;;;;;4982781;28;20224;-75
2022/04/10 03:06:59;;;;;;;8.53;4.97;;;2.90;99.90;;;;;;4982391;28;20275;-75
2022/04/10 03:09:25;;;;;;;8.07;4.93;;;2.90;99.90;;;;;;4982539;28;20198;-75
2022/04/10 03:11:51;;;;;;;6.00;4.67;;;2.90;99.90;;;;;;4998503;28;20295;-75
2022/04/10 03:14:17;;;;;;;6.17;4.50;;;2.90;99.90;;;;;;4982774;28;20204;-75
2022/04/10 03:16:43;;;;;;;6.70;4.77;;;3.00;99.90;;;;;;4998731;28;20167;-75
2022/04/10 03:19:09;;;;;;;10.40;4.83;;;2.90;99.90;;;;;;5014965;28;20689;-75
2022/04/10 03:21:34;;;;;;;6.40;4.73;;;2.90;99.90;;;;;;4998511;28;20176;-75
2022/04/10 03:24:01;;;;;;;6.10;4.53;;;2.90;99.90;;;;;;5014776;28;20204;-75
2022/04/10 03:26:27;;;;;;;8.53;4.90;;;2.90;99.90;;;;;;4998378;28;20185;-75
2022/04/10 03:28:53;;;;;;;9.20;5.00;;;2.90;99.90;;;;;;5014818;28;20195;-75
2022/04/10 03:31:20;;;;;;;7.17;4.63;;;2.90;99.90;;;;;;5032392;28;20254;-75
2022/04/10 03:33:46;;;;;;;9.50;3.87;;;2.90;99.90;;;;;;4982389;28;20622;-75
2022/04/10 03:36:12;;;;;;;5.93;4.20;;;2.90;99.90;;;;;;4998476;28;20178;-75
2022/04/10 03:38:38;;;;;;;7.47;4.33;;;2.90;99.90;;;;;;4998205;28;20245;-75
2022/04/10 03:41:04;;;;;;;5.23;4.07;;;2.90;99.90;;;;;;5014475;28;20232;-75
2022/04/10 03:43:31;;;;;;;10.00;4.07;;;2.90;99.90;;;;;;5014491;28;20270;-75
2022/04/10 03:45:56;;;;;;;4.87;4.13;;;2.90;99.90;;;;;;5014643;28;20183;-75
2022/04/10 03:48:22;;;;;;;5.47;4.27;;;2.90;99.90;;;;;;4997946;28;20580;-75
2022/04/10 03:50:47;;;;;;;6.53;4.10;;;2.80;99.90;;;;;;4998318;28;20645;-75
2022/04/10 03:53:13;;;;;;;5.63;4.17;;;2.70;99.90;;;;;;4981655;28;20202;-75
2022/04/10 03:55:39;;;;;;;7.67;4.60;;;2.50;99.90;;;;;;4997993;28;20186;-75
2022/04/10 03:58:04;;;;;;;7.57;4.37;;;2.50;99.90;;;;;;4981800;28;20286;-75
2022/04/10 04:00:30;;;;;;;6.17;4.13;;;2.40;99.90;;;;;;4981969;28;20178;-75
2022/04/10 04:02:56;;;;;;;6.67;4.23;;;2.40;99.90;;;;;;4997923;28;20192;-75
2022/04/10 04:05:22;;;;;;;6.97;4.47;;;2.40;99.90;;;;;;4981892;28;20211;-75
2022/04/10 04:07:47;;;;;;;8.10;4.40;;;2.40;99.90;;;;;;4981721;28;20198;-75
2022/04/10 04:10:13;;;;;;;6.70;4.33;;;2.40;99.90;;;;;;4983244;28;20213;-75
2022/04/10 04:12:39;;;;;;;6.90;4.33;;;2.40;99.90;;;;;;5001642;28;20305;-75
2022/04/10 04:15:05;;;;;;;6.10;3.90;;;2.40;99.90;;;;;;5018367;28;20253;-75
2022/04/10 04:17:30;;;;;;;5.63;4.20;;;2.40;99.90;;;;;;4985587;28;20201;-75
2022/04/10 04:19:56;;;;;;;7.77;4.50;;;2.50;99.90;;;;;;5018293;28;20166;-75
2022/04/10 04:22:22;;;;;;;6.07;3.87;;;2.50;99.90;;;;;;5001642;28;20718;-75
2022/04/10 04:24:48;;;;;;;6.07;3.83;;;2.40;99.90;;;;;;5018023;28;20203;-75
2022/04/10 04:27:14;;;;;;;6.83;4.23;;;2.40;99.90;;;;;;5018180;28;20175;-75
2022/04/10 04:29:39;;;;;;;7.83;4.13;;;2.30;99.90;;;;;;5001889;28;20610;-75
2022/04/10 04:32:05;;;;;;;6.17;4.40;;;2.40;99.90;;;;;;5001290;28;20724;-75
2022/04/10 04:34:31;;;;;;;7.17;4.17;;;2.30;99.90;;;;;;5035522;28;20171;-75
2022/04/10 04:36:57;;;;;;;9.47;4.10;;;2.30;99.90;;;;;;5018011;28;20168;-75
2022/04/10 04:39:22;;;;;;;7.03;4.30;;;2.30;99.90;;;;;;5017713;28;20194;-75
2022/04/10 04:41:48;;;;;;;6.37;3.97;;;2.30;99.90;;;;;;5017769;28;20180;-75
2022/04/10 04:44:14;;;;;;;5.90;3.80;;;2.30;99.90;;;;;;5001384;28;20179;-75
2022/04/10 04:46:39;;;;;;;6.37;4.00;;;2.20;99.90;;;;;;5001690;28;20183;-75
2022/04/10 04:49:05;;;;;;;6.37;4.13;;;2.20;99.90;;;;;;5052340;22;20218;-75
2022/04/10 04:51:34;;;;;;;6.37;4.20;;;2.30;99.90;;;;;;5024112;28;20202;-75
2022/04/10 04:54:04;;;;;;;7.20;4.17;;;2.30;99.90;;;;;;5040937;28;20207;-75
2022/04/10 04:56:30;;;;;;;6.90;4.17;;;2.30;99.90;;;;;;5057378;28;20261;-75
2022/04/10 04:58:56;;;;;;;7.40;4.23;;;2.40;99.90;;;;;;5037499;28;20226;-75
2022/04/10 05:01:22;;;;;;;5.63;4.07;;;2.40;99.90;;;;;;5037231;28;20588;-75
2022/04/10 05:03:49;;;;;;;5.30;3.80;;;2.30;99.90;;;;;;5020625;28;20267;-75
2022/04/10 05:06:15;;;;;;;7.63;4.00;;;2.40;99.90;;;;;;5054982;28;20653;-76
2022/04/10 05:08:41;;;;;;;5.70;3.83;;;2.40;99.90;;;;;;5037066;28;20208;-76
2022/04/10 05:11:10;;;;;;;8.17;4.10;;;2.40;99.90;;;;;;5020895;28;20175;-75
2022/04/10 05:13:36;;;;;;;6.17;3.70;;;2.50;99.90;;;;;;5020979;28;20691;-76
2022/04/10 05:16:02;;;;;;;7.37;4.07;;;2.50;99.90;;;;;;5036999;28;20168;-75
2022/04/10 05:18:28;;;;;;;8.80;4.57;;;2.40;99.90;;;;;;5020473;28;20282;-76
2022/04/10 05:20:53;;;;;;;4.97;4.00;;;2.30;99.90;;;;;;5019972;28;20198;-76
2022/04/10 05:23:19;;;;;;;5.77;3.33;;;2.40;99.90;;;;;;5020184;28;20178;-75
2022/04/10 05:25:45;;;;;;;8.27;3.90;;;2.40;99.90;;;;;;5020385;28;20188;-75
2022/04/10 05:28:11;;;;;;;8.87;4.03;;;2.50;99.90;;;;;;5020122;28;20203;-75
2022/04/10 05:30:38;;;;;;;6.53;3.93;;;2.40;99.90;;;;;;5037028;28;20204;-75
2022/04/10 05:33:03;;;;;;;7.27;3.97;;;2.40;99.90;;;;;;5036382;28;20203;-75
2022/04/10 05:35:29;;;;;;;5.13;4.07;;;2.50;99.90;;;;;;5036523;28;20177;-75
2022/04/10 05:37:55;;;;;;;6.13;4.10;;;2.50;99.90;;;;;;5036777;28;20202;-75
2022/04/10 05:40:22;;;;;;;5.27;3.50;;;2.50;99.90;;;;;;5036730;28;20710;-77
2022/04/10 05:42:48;;;;;;;5.10;3.23;;;2.50;99.90;;;;;;5020163;28;20661;-76
2022/04/10 05:45:14;;;;;;;7.93;3.60;;;2.50;99.90;;;;;;5036563;28;20188;-75
2022/04/10 05:47:41;;;;;;;5.53;3.40;;;2.50;99.90;;;;;;5036428;28;20183;-75
2022/04/10 05:50:08;;;;;;;6.80;3.90;;;2.50;99.90;;;;;;5036255;28;20229;-75
2022/04/10 05:52:45;;;;;;;6.30;3.80;;;2.50;99.90;;;;;;5036290;28;20201;-75
2022/04/10 05:55:13;;;;;;;7.23;3.87;;;2.50;99.90;;;;;;5019666;28;20198;-75
2022/04/10 05:57:38;;;;;;;9.57;3.87;;;2.60;99.90;;;;;;5036379;28;20185;-76
2022/04/10 06:00:07;;;;;;;6.57;3.70;;;2.50;99.90;;;;;;5036249;28;20175;-76
2022/04/10 06:02:33;;;;;;;9.17;4.00;;;2.60;99.90;;;;;;5035868;28;20464;-76
2022/04/10 06:04:59;;;;;;;8.77;4.03;;;2.80;99.90;;;;;;5019521;28;20276;-76
2022/04/10 06:07:25;;;;;;;8.07;4.07;;;3.00;99.90;;;;;;5036010;28;20189;-77
2022/04/10 06:09:51;;;;;;;5.60;3.53;;;3.00;99.90;;;;;;5036205;28;20181;-76
2022/04/10 06:12:16;;;;;;;7.43;4.17;;;3.00;99.90;;;;;;5035925;28;20207;-76
2022/04/10 06:14:42;;;;;;;6.80;3.67;;;3.20;99.90;;;;;;5019768;28;20179;-76
2022/04/10 06:17:08;;;;;;;11.63;4.37;;;3.20;99.90;;;;;;5019757;28;20194;-77
2022/04/10 06:19:34;;;;;;;7.00;3.50;;;3.20;99.90;;;;;;5035777;28;20205;-77
2022/04/10 06:22:00;;;;;;;8.67;3.63;;;3.10;99.90;;;;;;5035724;28;20554;-77
2022/04/10 06:24:27;;;;;;;5.77;3.90;;;3.10;99.90;;;;;;5019285;28;20204;-76
2022/04/10 06:26:53;;;;;;;6.00;3.90;;;3.10;99.90;;;;;;5035689;28;20246;-77
2022/04/10 06:29:19;;;;;;;5.60;3.50;;;3.10;99.90;;;;;;5035652;28;20560;-77
2022/04/10 06:31:46;;;;;;;10.03;4.03;;;3.10;99.90;;;;;;5035703;28;20171;-77
2022/04/10 06:34:11;;;;;;;6.27;3.40;;;3.10;99.90;;;;;;5034557;28;20211;-77
2022/04/10 06:36:38;;;;;;;7.73;3.53;;;3.20;99.90;;;;;;5035341;28;20177;-78
2022/04/10 06:39:04;;;;;;;12.70;4.23;;;3.30;99.90;;;;;;5018989;28;20204;-77
2022/04/10 06:41:30;;;;;;;7.80;3.33;;;3.30;99.90;;;;;;5019158;28;20207;-78
2022/04/10 06:43:56;;;;;;;9.17;4.00;;;3.30;99.90;;;;;;5035469;28;20275;-77
2022/04/10 06:46:23;;;;;;;7.37;3.43;;;3.20;99.90;;;;;;5035409;28;20215;-77
2022/04/10 06:48:49;;;;;;;7.67;4.40;;;3.20;99.90;;;;;;5018990;28;20250;-77
2022/04/10 06:51:16;;;;;;;7.97;3.70;;;3.30;99.90;;;;;;5019385;28;20271;-76
2022/04/10 06:53:42;;;;;;;18.40;6.57;;;3.40;99.90;;;;;;5034833;28;20199;-75
2022/04/10 06:56:08;;;;;;;12.43;5.97;;;3.60;99.90;;;;;;5035190;28;20177;-77
2022/04/10 06:58:34;;;;;;;10.67;5.90;;;4.00;99.90;;;;;;5018534;28;20211;-77
2022/04/10 07:01:00;;;;;;;10.40;4.93;;;4.10;99.90;;;;;;5018374;28;20187;-78
2022/04/10 07:03:26;;;;;;;12.30;6.83;;;4.10;99.90;;;;;;5035406;28;20181;-76
2022/04/10 07:05:51;;;;;;;6.37;4.30;;;4.10;99.90;;;;;;5019065;28;20193;-76
2022/04/10 07:08:17;;;;;;;7.80;3.93;;;4.00;99.90;;;;;;5018545;28;20678;-77
2022/04/10 07:10:43;;;;;;;8.57;5.10;;;3.90;99.90;;;;;;5034607;28;20185;-77
2022/04/10 07:13:08;;;;;;;8.53;4.73;;;3.90;99.90;;;;;;5034700;28;20212;-77
2022/04/10 07:15:34;;;;;;;7.83;4.53;;;3.90;99.90;;;;;;5018291;28;20181;-77
2022/04/10 07:18:00;;;;;;;8.33;5.30;;;3.90;99.90;;;;;;5034644;28;20204;-77
2022/04/10 07:20:26;;;;;;;7.67;4.27;;;3.90;99.90;;;;;;5034646;28;20557;-76
2022/04/10 07:25:37;;;;;;;7.97;3.40;;;3.90;99.90;;;;;;5052570;28;20184;-77
2022/04/10 07:28:03;;;;;;;10.03;5.60;;;3.90;99.90;;;;;;5034413;28;20204;-76
2022/04/10 07:30:30;;;;;;;9.07;6.07;;;3.80;99.90;;;;;;5034914;28;20182;-76
2022/04/10 07:32:57;;;;;;;14.13;8.07;;;3.90;99.90;;;;;;5034551;28;20223;-76
2022/04/10 07:35:24;;;;;;;19.23;8.93;;;4.00;99.90;;;;;;5034329;28;20553;-76
2022/04/10 07:37:51;;;;;;;16.63;7.87;;;4.10;99.90;;;;;;5018258;28;20320;-76
2022/04/10 07:40:19;;;;;;;13.73;7.07;;;4.30;99.90;;;;;;5034394;28;20176;-76
2022/04/10 07:42:45;;;;;;;15.43;6.93;;;4.40;99.90;;;;;;5034156;28;20184;-76
2022/04/10 07:47:25;;;;;;;11.70;4.10;;;4.50;99.90;;;;;;5018182;28;20184;-76
2022/04/10 07:48:01;;;;;;;4.63;2.77;;;4.60;99.90;;;;;;5036916;28;20310;-76
2022/04/10 07:50:28;;;;;;;5.77;3.50;;;4.50;99.90;;;;;;5017994;28;20188;-76
2022/04/10 07:52:55;;;;;;;4.93;2.60;;;4.60;99.90;;;;;;5034152;28;20212;-76
2022/04/10 07:55:21;;;;;;;7.97;3.10;;;4.60;99.90;;;;;;5034205;28;20235;-76
2022/04/10 07:57:48;;;;;;;8.10;2.47;;;4.60;99.90;;;;;;5034268;28;20204;-75
2022/04/10 08:00:14;;;;;;;8.97;4.87;;;4.60;99.90;;;;;;5017926;28;20177;-76
2022/04/10 08:02:42;;;;;;;9.53;4.00;;;4.50;99.90;;;;;;5033825;28;20188;-76
2022/04/10 08:05:08;;;;;;;4.30;2.90;;;4.60;99.90;;;;;;5018553;28;20209;-76
2022/04/10 08:07:34;;;;;;;9.20;4.60;;;4.70;99.90;;;;;;5033851;28;20198;-76
2022/04/10 08:09:59;;;;;;;12.07;6.03;;;4.70;99.90;;;;;;5017991;28;20189;-76
2022/04/10 08:12:25;;;;;;;6.63;3.10;;;4.90;99.90;;;;;;5017303;28;20223;-76
2022/04/10 08:14:51;;;;;;;5.57;2.77;;;4.90;99.90;;;;;;5033992;28;20185;-76
2022/04/10 08:17:16;;;;;;;6.20;3.00;;;5.10;99.90;;;;;;5017393;28;20550;-76
2022/04/10 08:19:42;;;;;;;6.40;2.87;;;5.20;99.90;;;;;;5017280;28;20247;-75
2022/04/10 08:22:07;;;;;;;4.70;2.57;;;5.20;99.90;;;;;;5017263;28;20176;-75
2022/04/10 08:24:33;;;;;;;5.30;2.27;;;5.40;99.90;;;;;;5017733;28;20185;-76
2022/04/10 08:26:59;;;;;;;5.17;2.50;;;5.60;99.90;;;;;;5017786;28;20264;-75
2022/04/10 08:29:25;;;;;;;5.63;3.20;;;5.80;99.90;;;;;;5017259;28;20197;-76
2022/04/10 08:31:51;;;;;;;6.50;3.10;;;5.80;99.90;;;;;;5033794;28;20174;-76
2022/04/10 08:34:17;;;;;;;5.07;2.50;;;5.80;99.90;;;;;;5033954;28;20296;-75
2022/04/10 08:36:42;;;;;;;6.90;3.17;;;5.90;99.90;;;;;;5033862;28;20178;-76
2022/04/10 08:39:08;;;;;;;6.03;2.00;;;5.90;99.90;;;;;;5017494;28;20198;-76
2022/04/10 08:41:36;;;;;;;4.20;2.53;;;5.90;99.90;;;;;;5018536;28;20185;-80
2022/04/10 08:44:02;;;;;;;6.10;3.20;;;5.80;99.90;;;;;;5034365;28;20277;-76
2022/04/10 08:46:29;;;;;;;4.07;2.00;;;5.80;99.90;;;;;;5034039;28;20185;-76
2022/04/10 08:48:56;;;;;;;3.93;2.03;;;5.90;99.90;;;;;;5034691;28;20271;-76
2022/04/10 08:51:26;;;;;;;5.63;2.47;;;5.80;99.90;;;;;;5033762;28;20195;-76
2022/04/10 08:53:56;;;;;;;3.03;1.57;;;5.60;99.90;;;;;;5051343;28;20228;-76
2022/04/10 08:56:22;;;;;;;4.43;1.83;;;5.60;99.90;;;;;;5018982;28;20188;-76
2022/04/10 08:58:51;;;;;;;3.23;1.70;;;5.90;99.90;;;;;;5020789;28;20197;-76
2022/04/10 09:01:22;;;;;;;4.27;2.00;;;6.10;99.90;;;;;;5021057;28;20181;-76
2022/04/10 09:03:48;;;;;;;5.50;1.90;;;6.40;99.90;;;;;;5037401;28;20177;-76
2022/04/10 09:06:14;;;;;;;5.13;2.10;;;6.60;99.90;;;;;;5037428;28;20227;-76
2022/04/10 09:08:39;;;;;;;7.07;2.40;;;6.60;99.90;;;;;;5037094;28;20198;-76
2022/04/10 09:11:05;;;;;;;5.37;2.23;;;6.80;99.90;;;;;;5037295;28;20193;-76
2022/04/10 09:13:33;;;;;;;7.13;2.17;;;6.70;99.90;;;;;;5036935;28;20205;-76
2022/04/10 09:16:13;;;;;;;3.07;1.73;;;6.60;99.90;;;;;;5054844;28;20184;-76
2022/04/10 09:18:48;;;;;;;3.40;1.83;;;6.90;99.90;;;;;;5036877;28;20186;-75
2022/04/10 09:21:14;;;;;;;4.83;1.93;;;7.30;99.90;;;;;;5037365;28;20166;-76
2022/04/10 09:23:40;;;;;;;6.37;2.30;;;7.60;99.90;;;;;;5036775;28;20652;-75
2022/04/10 09:26:05;;;;;;;4.13;1.90;;;7.70;99.90;;;;;;5037002;28;20175;-75
2022/04/10 09:28:46;;;;;;;2.90;1.70;;;7.60;99.90;;;;;;5036659;28;20210;-74
2022/04/10 09:31:33;;;;;;;5.37;2.23;;;7.50;99.90;;;;;;5036846;28;20170;-75
2022/04/10 09:34:08;;;;;;;2.73;1.80;;;7.20;99.90;;;;;;5020097;28;20212;-75
2022/04/10 09:36:42;;;;;;;3.23;1.57;;;6.90;99.90;;;;;;5036592;28;20166;-75
2022/04/10 09:39:13;;;;;;;4.00;1.70;;;6.60;99.90;;;;;;5035420;28;20201;-75
2022/04/10 09:41:40;;;;;;;3.10;1.57;;;6.60;99.90;;;;;;5036672;28;20177;-75
2022/04/10 09:44:22;;;;;;;2.17;1.50;;;6.70;99.90;;;;;;5036356;28;20174;-76
2022/04/10 09:46:59;;;;;;;4.60;1.80;;;6.70;99.90;;;;;;5020279;28;20185;-75
2022/04/10 09:49:33;;;;;;;2.73;1.73;;;7.10;99.90;;;;;;5020058;28;20236;-75
2022/04/10 09:52:07;;;;;;;4.77;1.70;;;7.50;99.90;;;;;;5036021;28;20234;-75
2022/04/10 09:54:52;;;;;;;4.13;2.20;;;7.60;99.90;;;;;;5020698;28;20195;-75
2022/04/10 09:57:20;;;;;;;5.50;2.00;;;8.10;99.90;;;;;;4999669;28;20195;-74
2022/04/10 09:59:50;;;;;;;3.33;1.60;;;7.90;99.90;;;;;;5016185;28;20201;-75
2022/04/10 10:02:18;;;;;;;5.53;2.10;;;8.00;99.90;;;;;;4999716;28;20180;-75
2022/04/10 10:04:45;;;;;;;2.33;1.40;;;7.70;99.90;;;;;;5019876;28;20179;-75
2022/04/10 10:07:20;;;;;;;3.17;1.80;;;7.40;99.90;;;;;;5019154;28;20176;-75
2022/04/10 10:09:48;;;;;;;6.00;2.60;;;7.00;99.90;;;;;;5036246;28;20208;-76
2022/04/10 10:12:15;;;;;;;3.10;1.80;;;7.10;99.90;;;;;;5019305;28;20198;-76
2022/04/10 10:14:41;;;;;;;5.47;2.10;;;7.40;99.90;;;;;;5019368;28;20286;-76
2022/04/10 10:17:09;;;;;;;2.43;1.70;;;7.50;99.90;;;;;;5019172;28;20187;-76
2022/04/10 10:19:38;;;;;;;3.07;1.80;;;7.30;99.90;;;;;;5036020;28;20580;-77
2022/04/10 10:22:06;;;;;;;4.27;2.70;;;7.50;99.90;;;;;;5035686;28;20311;-75
2022/04/10 10:25:00;;;;;;;5.20;2.10;;;8.10;99.90;;;;;;5019597;28;20188;-75
2022/04/10 10:27:40;;;;;;;3.07;1.80;;;8.40;99.90;;;;;;5033863;28;20326;-76
2022/04/10 10:30:29;;;;;;;2.63;1.50;;;8.60;99.90;;;;;;5053805;28;20520;-76
2022/04/10 10:33:14;;;;;;;4.63;1.50;;;8.60;99.90;;;;;;5021900;28;20570;-76
2022/04/10 10:35:48;;;;;;;6.37;2.30;;;8.70;99.90;;;;;;5035574;28;20173;-73
2022/04/10 10:38:25;;;;;;;6.00;3.00;;;8.90;99.90;;;;;;5053418;28;20220;-73
2022/04/10 10:40:53;;;;;;;3.47;1.60;;;9.40;99.90;;;;;;5019296;28;20196;-73
2022/04/10 10:43:25;;;;;;;5.50;1.70;;;9.50;99.90;;;;;;5034940;28;20173;-74
2022/04/10 10:45:54;;;;;;;2.60;1.70;;;9.30;99.90;;;;;;5035251;28;20627;-74
2022/04/10 10:48:38;;;;;;;2.50;1.50;;;9.30;99.90;;;;;;5070985;22;20278;-74
2022/04/10 10:51:10;;;;;;;4.10;2.03;;;9.40;99.90;;;;;;4987291;28;20542;-74
2022/04/10 10:53:44;;;;;;;2.90;1.37;;;9.20;99.90;;;;;;5035562;28;20651;-74
2022/04/10 10:56:20;;;;;;;4.47;1.50;;;8.80;99.90;;;;;;5002085;28;20172;-74
2022/04/10 10:58:50;;;;;;;4.33;1.50;;;9.00;99.90;;;;;;5035378;28;20671;-74
2022/04/10 11:01:26;;;;;;;3.40;2.00;;;9.30;99.90;;;;;;5001886;28;20192;-74
2022/04/10 11:04:09;;;;;;;8.03;2.43;;;9.10;99.90;;;;;;5018427;28;20177;-74
2022/04/10 11:06:44;;;;;;;4.27;1.60;;;9.60;99.90;;;;;;5018026;28;20170;-74
2022/04/10 11:09:30;;;;;;;4.03;1.20;;;9.50;99.90;;;;;;5002512;28;20274;-74
2022/04/10 11:11:57;;;;;;;3.33;1.30;;;8.90;99.90;;;;;;5018817;28;20633;-74
2022/04/10 11:14:41;;;;;;;2.70;1.27;;;8.50;99.90;;;;;;5018413;28;20641;-74
2022/04/10 11:17:31;;;;;;;2.23;1.30;;;8.30;99.90;;;;;;5018230;28;20180;-75
2022/04/10 11:20:05;;;;;;;3.03;1.30;;;8.60;99.90;;;;;;4990096;28;20206;-74
2022/04/10 11:22:34;;;;;;;2.27;1.20;;;9.00;99.90;;;;;;5002214;28;20182;-74
2022/04/10 11:25:04;;;;;;;1.30;1.10;;;9.40;99.90;;;;;;5002944;28;20178;-74
2022/04/10 11:27:48;;;;;;;2.27;1.33;;;9.70;99.90;;;;;;5018833;28;20285;-74
2022/04/10 11:30:19;;;;;;;4.83;1.97;;;9.60;99.90;;;;;;5018675;28;20174;-74
2022/04/10 11:32:58;;;;;;;4.00;1.47;;;9.40;99.90;;;;;;5002751;28;20211;-74
2022/04/10 11:35:38;;;;;;;1.50;1.40;;;9.50;99.90;;;;;;5003548;28;20519;-74
2022/04/10 11:38:12;;;;;;;1.97;1.27;;;9.50;99.90;;;;;;4985844;28;20202;-74
2022/04/10 11:40:41;;;;;;;2.37;1.10;;;10.00;99.90;;;;;;5018378;28;20218;-74
2022/04/10 11:43:08;;;;;;;2.57;1.23;;;10.00;97.50;;;;;;5002332;28;20196;-74
2022/04/10 11:45:34;;;;;;;3.40;1.10;;;10.00;99.50;;;;;;5002453;28;20185;-74
2022/04/10 11:48:05;;;;;;;2.40;1.30;;;10.20;96.00;;;;;;5018304;28;20179;-74
2022/04/10 11:50:32;;;;;;;2.80;1.20;;;10.20;97.70;;;;;;5018676;28;20187;-74
2022/04/10 11:53:08;;;;;;;4.13;2.20;;;10.10;96.50;;;;;;5001882;28;20222;-75
2022/04/10 11:55:36;;;;;;;3.90;2.10;;;10.10;97.90;;;;;;5001636;28;20266;-74
2022/04/10 11:58:17;;;;;;;3.83;2.00;;;10.60;99.30;;;;;;5001366;28;20179;-74
2022/04/10 12:00:59;;;;;;;5.30;3.10;;;10.70;98.50;;;;;;5035914;28;20172;-74
2022/04/10 12:03:27;;;;;;;2.33;1.20;;;10.60;97.50;;;;;;5018199;28;20181;-74
2022/04/10 12:05:54;;;;;;;4.30;1.80;;;10.40;96.80;;;;;;5002184;28;20185;-74
2022/04/10 12:08:20;;;;;;;2.80;1.50;;;10.30;97.60;;;;;;5018733;28;20205;-74
2022/04/10 12:10:57;;;;;;;3.13;1.40;;;10.20;96.40;;;;;;4985968;28;20251;-74
2022/04/10 12:13:34;;;;;;;2.40;1.30;;;10.40;98.00;;;;;;5017628;28;20208;-74
2022/04/10 12:16:16;;;;;;;1.87;1.30;;;10.70;96.30;;;;;;5017234;28;20184;-74
2022/04/10 12:18:55;;;;;;;2.07;1.10;;;10.80;96.60;;;;;;5002054;28;20255;-74
2022/04/10 12:21:23;;;;;;;3.97;1.30;;;10.40;94.50;;;;;;5017035;28;20185;-74
2022/04/10 12:24:20;;;;;;;2.43;1.43;;;10.10;95.30;;;;;;4984657;28;20192;-75
2022/04/10 12:26:46;;;;;;;3.60;1.50;;;9.60;96.10;;;;;;4997686;28;20275;-75
2022/04/10 12:29:12;;;;;;;2.10;1.40;;;9.60;99.30;;;;;;5016719;28;20223;-75
2022/04/10 12:31:41;;;;;;;2.17;1.57;;;9.90;98.50;;;;;;5002994;28;20215;-74
2022/04/10 12:34:10;;;;;;;2.57;1.40;;;10.10;99.90;;;;;;4989581;28;20204;-75
2022/04/10 12:36:48;;;;;;;1.30;0.93;;;10.40;95.70;;;;;;4989808;28;20183;-74
2022/04/10 12:39:47;;;;;;;2.87;1.20;;;10.30;97.20;;;;;;5022613;28;20195;-74
2022/04/10 12:42:19;;;;;;;2.37;1.40;;;10.00;99.30;;;;;;5003659;28;20196;-74
2022/04/10 12:44:55;;;;;;;3.40;1.30;;;10.40;97.80;;;;;;5006560;28;20193;-74
2022/04/10 12:47:43;;;;;;;2.23;1.10;;;10.70;96.90;;;;;;5004755;28;20204;-74
2022/04/10 12:50:11;;;;;;;1.50;1.20;;;11.00;92.90;;;;;;5020738;28;20212;-74
2022/04/10 12:52:41;;;;;;;2.20;1.30;;;11.30;92.20;;;;;;5004954;28;20266;-74
2022/04/10 12:55:32;;;;;;;1.17;0.93;;;11.10;94.30;;;;;;5004346;28;20193;-74
2022/04/10 12:58:05;;;;;;;2.73;1.47;;;11.00;93.80;;;;;;5004932;28;20173;-74
2022/04/10 13:00:35;;;;;;;3.00;1.70;;;11.20;94.10;;;;;;5003631;28;20185;-74
2022/04/10 13:03:21;;;;;;;1.53;1.30;;;11.50;93.10;;;;;;5019602;28;20276;-74
2022/04/10 13:06:15;;;;;;;1.50;1.30;;;11.50;88.50;;;;;;5020188;28;20240;-74